Richville, Arizona
Current Conditions -  °F | °C
As of 4:54 PM on Friday 24 Oct 2014 (Local Time) from KSJN Reporting Station
Clear Clear  
Wind Chill: 77°   Ceiling: Unl
Heat Index: 77°   Visibility: 10mi
Dew Point: 35°   Wind: 6mph
Humidity: 22%   Direction: 350°N
Pressure: 30.23"   Gusts: NA
Location:  34.4981°N, 109.241°W
Report Text: KSJN 242354Z AUTO 35005KT 10SM CLR 25/02 A3023 RMK AO2 SLP168 T02500017 10261 20211 58008
Loading
Personal Weather Stations






























Interactive Weather Map
Tropical Storm Tracking
New forecast layout! Learn more

10-Day Weather Forecast

Advertisements
Track Severe Weather on mobile